Time;durP1;ratioP1;P1;durP2;ratioP2;P2;SDS_P1;SDS_P2;PMS_P1;PMS_P2;Temp;Humidity;BMP_temperature;BMP_pressure;BME280_temperature;BME280_humidity;BME280_pressure;Samples;Min_cycle;Max_cycle;Signal;HPM_P1;HPM_P2
2023/10/20 00:02:27;;;;;;;14.13;6.00;;;15.70;21.80;;;;;;5043822;28;20858;-74
2023/10/20 00:04:53;;;;;;;15.23;6.30;;;15.70;20.60;;;;;;5046805;28;20793;-74
2023/10/20 00:07:30;;;;;;;14.50;6.70;;;15.70;20.80;;;;;;5059873;28;20498;-74
2023/10/20 00:10:00;;;;;;;20.37;5.57;;;15.70;20.80;;;;;;5048169;28;21031;-74
2023/10/20 00:12:38;;;;;;;8.23;5.03;;;15.70;20.20;;;;;;5027457;28;20473;-84
2023/10/20 00:15:05;;;;;;;9.80;4.80;;;15.60;20.20;;;;;;5032925;28;20415;-84
2023/10/20 00:17:31;;;;;;;18.17;6.90;;;15.70;20.60;;;;;;5043891;28;20410;-84
2023/10/20 00:20:01;;;;;;;17.20;6.27;;;15.70;21.10;;;;;;5033176;28;20468;-84
2023/10/20 00:23:00;;;;;;;11.17;5.30;;;15.70;21.10;;;;;;5032952;28;20186;-84
2023/10/20 00:25:29;;;;;;;13.23;5.20;;;15.70;21.00;;;;;;5041127;28;20468;-74
2023/10/20 00:28:00;;;;;;;9.37;4.90;;;15.60;18.20;;;;;;5025967;28;20441;-84
2023/10/20 00:31:00;;;;;;;13.30;5.83;;;15.70;21.30;;;;;;5034011;28;20952;-84
2023/10/20 00:33:26;;;;;;;9.43;5.40;;;15.70;22.20;;;;;;5034545;28;20416;-84
2023/10/20 00:36:00;;;;;;;19.50;5.47;;;15.70;21.60;;;;;;5043941;28;20441;-84
2023/10/20 00:39:00;;;;;;;12.50;5.63;;;15.70;21.80;;;;;;5027955;28;20667;-84
2023/10/20 00:41:26;;;;;;;14.97;5.53;;;15.60;21.60;;;;;;5046807;28;20444;-75
2023/10/20 00:43:55;;;;;;;20.60;6.20;;;15.60;20.60;;;;;;5027075;28;20411;-74
2023/10/20 00:46:24;;;;;;;10.33;5.37;;;15.60;20.20;;;;;;5031687;28;20625;-74
2023/10/20 00:49:02;;;;;;;11.43;5.63;;;15.60;20.20;;;;;;5034127;28;20474;-74
2023/10/20 00:51:31;;;;;;;10.00;5.30;;;15.60;20.70;;;;;;5029140;28;20455;-74
2023/10/20 00:54:00;;;;;;;11.10;5.77;;;15.60;20.70;;;;;;5047296;28;20949;-74
2023/10/20 00:56:27;;;;;;;16.57;6.20;;;15.60;20.20;;;;;;5042259;28;20932;-75
2023/10/20 00:58:53;;;;;;;18.63;5.37;;;15.60;20.10;;;;;;5036185;28;20429;-74
2023/10/20 01:01:18;;;;;;;16.97;6.30;;;15.60;19.90;;;;;;5032825;28;20428;-74
2023/10/20 01:03:49;;;;;;;18.23;6.20;;;15.50;19.70;;;;;;5042899;28;20698;-74
2023/10/20 01:06:15;;;;;;;17.40;6.70;;;15.60;19.40;;;;;;5054367;28;20181;-74
2023/10/20 01:08:40;;;;;;;19.03;8.10;;;15.60;20.10;;;;;;5037029;28;20410;-74
2023/10/20 01:11:37;;;;;;;13.00;6.30;;;15.60;21.80;;;;;;5038441;28;20455;-84
2023/10/20 01:14:19;;;;;;;11.03;6.80;;;15.50;19.90;;;;;;5052653;28;20176;-84
2023/10/20 01:17:30;;;;;;;9.73;6.73;;;15.50;24.20;;;;;;5033433;28;20412;-84
2023/10/20 01:20:30;;;;;;;8.80;5.97;;;15.50;25.00;;;;;;5032286;28;20400;-84
2023/10/20 01:23:30;;;;;;;24.83;7.30;;;15.60;24.80;;;;;;5037441;28;20428;-84
2023/10/20 01:26:02;;;;;;;26.17;7.30;;;15.60;22.40;;;;;;5039335;28;20428;-81
2023/10/20 01:28:28;;;;;;;17.27;7.50;;;15.50;22.40;;;;;;5043519;28;20465;-74
2023/10/20 01:30:56;;;;;;;13.53;7.10;;;15.60;25.40;;;;;;5039146;28;20469;-74
2023/10/20 01:33:21;;;;;;;11.10;7.00;;;15.60;25.20;;;;;;5046271;28;20170;-74
2023/10/20 01:35:47;;;;;;;12.57;6.97;;;15.50;24.20;;;;;;5031969;28;20406;-74
2023/10/20 01:38:13;;;;;;;21.13;7.60;;;15.50;22.00;;;;;;5028911;28;20176;-74
2023/10/20 01:40:38;;;;;;;37.13;6.07;;;15.50;22.10;;;;;;5033585;28;20644;-74
2023/10/20 01:43:30;;;;;;;12.80;6.30;;;15.50;22.00;;;;;;5028341;28;20178;-84
2023/10/20 01:45:56;;;;;;;17.73;9.83;;;15.50;22.60;;;;;;5039269;28;20191;-84
2023/10/20 01:48:31;;;;;;;15.40;7.23;;;15.50;23.10;;;;;;5039870;28;20425;-84
2023/10/20 01:51:01;;;;;;;12.17;6.30;;;;;;;;;;5036349;28;20600;-84
2023/10/20 01:56:48;;;;;;;11.47;6.17;;;15.40;23.00;;;;;;5049996;28;20387;-84
2023/10/20 01:59:36;;;;;;;19.77;7.27;;;15.40;22.30;;;;;;5046504;28;20477;-84
2023/10/20 02:02:30;;;;;;;19.23;5.63;;;15.40;19.20;;;;;;5038401;28;20209;-84
2023/10/20 02:05:30;;;;;;;13.23;6.10;;;15.40;21.20;;;;;;5041376;28;20416;-84
2023/10/20 02:08:31;;;;;;;13.03;5.90;;;15.40;20.80;;;;;;5035907;28;20409;-83
2023/10/20 02:14:55;;;;;;;12.60;6.23;;;15.30;21.10;;;;;;5033502;28;20437;-84
2023/10/20 02:17:21;;;;;;;17.13;6.80;;;15.30;21.80;;;;;;5033616;28;20418;-84
2023/10/20 02:20:07;;;;;;;27.27;7.10;;;15.30;23.00;;;;;;5035213;28;20770;-82
2023/10/20 02:26:36;;;;;;;13.07;7.40;;;15.20;25.00;;;;;;5035327;28;20965;-84
2023/10/20 02:29:02;;;;;;;19.60;8.83;;;15.20;23.20;;;;;;5032678;28;20464;-74
2023/10/20 02:31:28;;;;;;;24.63;8.60;;;15.20;26.60;;;;;;5033262;28;20441;-74
2023/10/20 02:33:54;;;;;;;21.47;8.97;;;15.20;29.10;;;;;;5034070;28;20402;-74
2023/10/20 02:36:34;;;;;;;19.90;9.70;;;15.20;28.70;;;;;;5035385;28;20182;-74
2023/10/20 02:39:00;;;;;;;22.07;8.53;;;15.20;30.90;;;;;;5040413;28;20753;-74
2023/10/20 02:41:25;;;;;;;14.63;9.20;;;15.20;31.20;;;;;;5036280;28;20410;-74
2023/10/20 02:43:51;;;;;;;18.67;8.60;;;15.30;34.30;;;;;;5038840;28;20655;-74
2023/10/20 02:46:17;;;;;;;19.40;9.83;;;15.30;34.10;;;;;;5047026;28;20215;-74
2023/10/20 02:48:42;;;;;;;15.63;8.07;;;15.30;36.30;;;;;;5039036;28;20270;-74
2023/10/20 02:51:15;;;;;;;21.77;9.43;;;15.30;40.10;;;;;;5041977;28;20201;-74
2023/10/20 02:53:41;;;;;;;17.43;9.53;;;15.30;40.90;;;;;;5037385;28;20186;-74
2023/10/20 02:56:18;;;;;;;15.10;8.40;;;15.30;41.80;;;;;;5041830;28;20711;-74
2023/10/20 02:58:55;;;;;;;18.77;9.60;;;15.30;41.20;;;;;;5044948;28;20481;-74
2023/10/20 03:01:21;;;;;;;18.47;9.10;;;15.40;38.30;;;;;;5054204;28;20442;-74
2023/10/20 03:04:01;;;;;;;25.03;9.37;;;15.30;36.30;;;;;;5028365;28;20402;-84
2023/10/20 03:06:26;;;;;;;21.13;9.60;;;15.40;31.60;;;;;;5045306;28;20228;-84
2023/10/20 03:09:30;;;;;;;21.90;8.20;;;15.40;34.10;;;;;;5034588;28;20379;-84
2023/10/20 03:12:31;;;;;;;48.07;9.90;;;15.40;29.10;;;;;;5026738;28;20187;-84
2023/10/20 03:14:56;;;;;;;20.67;9.17;;;15.40;28.60;;;;;;5039067;28;20413;-86
2023/10/20 03:17:22;;;;;;;18.40;8.63;;;15.30;31.30;;;;;;5044621;28;20434;-86
2023/10/20 03:20:32;;;;;;;24.63;9.47;;;15.40;35.20;;;;;;5033822;28;20264;-86
2023/10/20 03:23:01;;;;;;;16.07;9.43;;;15.40;31.60;;;;;;5039098;28;20267;-86
2023/10/20 03:29:01;;;;;;;14.67;9.27;;;15.30;31.00;;;;;;5041206;28;20395;-86
2023/10/20 03:32:00;;;;;;;17.10;9.10;;;15.30;34.60;;;;;;5029179;28;20566;-86
2023/10/20 03:34:34;;;;;;;18.70;9.07;;;15.30;30.50;;;;;;5040914;28;20407;-86
2023/10/20 03:37:01;;;;;;;21.47;9.80;;;15.30;28.30;;;;;;5045158;28;20423;-86
2023/10/20 03:39:33;;;;;;;21.93;9.63;;;15.30;30.80;;;;;;5041535;28;20382;-86
2023/10/20 03:42:30;;;;;;;17.00;8.93;;;15.30;26.80;;;;;;5034548;28;20425;-86
2023/10/20 03:45:39;;;;;;;15.07;8.80;;;15.20;25.80;;;;;;5024122;28;20418;-86
2023/10/20 03:48:33;;;;;;;15.73;8.50;;;15.20;27.50;;;;;;5034264;28;20937;-86
2023/10/20 03:51:04;;;;;;;17.17;9.73;;;15.20;29.90;;;;;;5030853;28;20516;-86
2023/10/20 03:53:48;;;;;;;19.60;10.07;;;;;;;;;;5034887;28;20426;-86
2023/10/20 03:56:56;;;;;;;25.60;9.97;;;15.20;26.60;;;;;;5039987;28;20442;-86
2023/10/20 04:03:01;;;;;;;17.70;10.00;;;15.10;28.80;;;;;;5037222;28;20482;-86
2023/10/20 04:06:04;;;;;;;23.70;9.77;;;15.10;29.40;;;;;;5041971;28;20426;-86
2023/10/20 04:08:31;;;;;;;25.17;9.47;;;15.10;32.40;;;;;;5041512;28;20430;-86
2023/10/20 04:10:58;;;;;;;24.47;10.00;;;15.10;32.10;;;;;;5037284;28;20434;-86
2023/10/20 04:13:32;;;;;;;23.60;10.37;;;15.10;32.90;;;;;;5033616;28;20808;-85
2023/10/20 04:15:57;;;;;;;16.13;9.90;;;15.20;35.30;;;;;;5040948;28;20422;-84
2023/10/20 04:18:23;;;;;;;18.50;10.50;;;15.10;34.00;;;;;;5054021;28;20421;-84
2023/10/20 04:20:58;;;;;;;19.33;10.90;;;15.00;33.00;;;;;;5040215;28;20170;-84
2023/10/20 04:23:31;;;;;;;23.77;9.77;;;15.00;36.60;;;;;;5033886;28;20654;-84
2023/10/20 04:26:21;;;;;;;18.73;10.17;;;15.00;37.00;;;;;;5040381;28;20389;-84
2023/10/20 04:44:58;;;;;;;22.17;10.20;;;14.90;39.80;;;;;;5023558;28;20410;-84
2023/10/20 04:54:10;;;;;;;17.67;10.27;;;14.80;43.00;;;;;;5033187;28;20414;-84
2023/10/20 05:06:41;;;;;;;24.53;11.10;;;14.80;46.30;;;;;;5028392;28;20469;-86
2023/10/20 05:10:00;;;;;;;21.63;11.47;;;14.70;46.00;;;;;;5017996;28;20441;-86
2023/10/20 05:12:33;;;;;;;21.20;11.50;;;14.70;46.10;;;;;;5015604;28;20435;-86
2023/10/20 05:14:59;;;;;;;22.97;10.73;;;14.80;43.00;;;;;;5033446;28;20390;-86
2023/10/20 05:17:25;;;;;;;23.67;10.83;;;14.80;46.40;;;;;;5020821;28;20448;-86
2023/10/20 05:19:53;;;;;;;18.70;10.70;;;14.80;46.30;;;;;;5014830;28;20227;-86
2023/10/20 05:22:37;;;;;;;19.10;10.70;;;14.80;43.00;;;;;;5017677;28;20428;-86
2023/10/20 05:25:30;;;;;;;26.70;11.43;;;14.80;46.10;;;;;;5012130;28;20406;-86
2023/10/20 05:28:01;;;;;;;23.17;11.57;;;14.80;46.20;;;;;;5006370;28;20411;-86
2023/10/20 05:30:54;;;;;;;23.40;10.93;;;14.80;46.00;;;;;;4992948;28;20464;-86
2023/10/20 05:33:45;;;;;;;20.23;11.70;;;14.80;46.20;;;;;;5012446;28;20507;-86
2023/10/20 05:36:12;;;;;;;25.40;11.30;;;14.80;43.00;;;;;;5007487;28;20406;-86
2023/10/20 05:39:31;;;;;;;27.13;12.20;;;14.80;46.20;;;;;;5055437;28;20398;-86
2023/10/20 05:42:06;;;;;;;23.40;12.10;;;14.80;42.90;;;;;;5055241;28;20171;-85
2023/10/20 05:48:07;;;;;;;22.33;11.70;;;14.80;42.90;;;;;;5034157;28;20915;-86
2023/10/20 05:54:03;;;;;;;51.00;14.80;;;14.80;43.40;;;;;;5022734;28;20394;-86
2023/10/20 05:56:31;;;;;;;30.70;12.77;;;14.80;38.30;;;;;;5029465;28;20396;-86
2023/10/20 05:59:01;;;;;;;25.13;12.77;;;14.80;42.40;;;;;;5036898;28;20402;-86
2023/10/20 06:02:07;;;;;;;30.07;13.10;;;14.70;46.00;;;;;;5030755;28;20441;-86
2023/10/20 06:04:34;;;;;;;38.83;14.10;;;14.70;46.00;;;;;;5033570;28;20825;-85
2023/10/20 06:07:00;;;;;;;22.50;11.37;;;14.70;39.70;;;;;;5033255;28;20403;-83
2023/10/20 06:09:26;;;;;;;31.37;13.77;;;14.70;34.30;;;;;;5032193;28;20419;-84
2023/10/20 06:11:53;;;;;;;24.10;11.80;;;14.70;40.30;;;;;;5042750;28;20405;-83
2023/10/20 06:14:26;;;;;;;30.53;13.50;;;14.70;40.00;;;;;;5041839;28;20405;-83
2023/10/20 06:16:52;;;;;;;23.03;11.23;;;14.70;42.00;;;;;;5052441;28;20424;-84
2023/10/20 06:19:25;;;;;;;20.23;12.07;;;14.70;43.70;;;;;;5034790;28;20416;-83
2023/10/20 06:21:55;;;;;;;21.87;12.20;;;14.70;45.30;;;;;;5042468;28;20403;-83
2023/10/20 06:24:25;;;;;;;28.27;12.40;;;14.60;42.90;;;;;;5045627;28;20933;-83
2023/10/20 06:27:02;;;;;;;27.40;13.33;;;14.70;46.10;;;;;;5035374;28;20886;-83
2023/10/20 06:34:46;;;;;;;23.97;12.30;;;14.70;46.00;;;;;;5047731;28;20440;-74
2023/10/20 06:37:37;;;;;;;24.47;12.43;;;14.80;37.90;;;;;;5034646;28;20446;-74
2023/10/20 06:39:57;;;;;;;28.63;13.40;;;14.70;39.60;;;;;;5040933;28;20401;-74
2023/10/20 06:42:24;;;;;;;45.23;14.90;;;14.70;36.20;;;;;;5038460;28;20424;-74
2023/10/20 06:45:04;;;;;;;26.87;13.30;;;14.70;34.40;;;;;;5023425;28;20633;-83
2023/10/20 06:47:31;;;;;;;28.23;13.03;;;14.70;34.00;;;;;;5030278;28;20424;-83
2023/10/20 06:50:01;;;;;;;27.07;13.13;;;14.60;32.70;;;;;;5037336;28;20513;-83
2023/10/20 06:52:31;;;;;;;24.87;12.73;;;14.80;34.60;;;;;;5040509;28;20415;-83
2023/10/20 06:55:03;;;;;;;29.93;14.77;;;14.80;37.90;;;;;;5048025;28;20477;-83
2023/10/20 06:58:00;;;;;;;30.47;12.87;;;14.70;30.70;;;;;;5034234;28;20409;-83
2023/10/20 07:00:28;;;;;;;30.13;13.10;;;14.70;30.30;;;;;;5046145;28;20446;-74
2023/10/20 07:02:54;;;;;;;29.77;14.60;;;14.70;29.10;;;;;;5040475;28;20386;-74
2023/10/20 07:05:23;;;;;;;30.73;14.70;;;14.70;28.60;;;;;;5035686;28;20406;-75
2023/10/20 07:07:50;;;;;;;31.60;15.37;;;14.70;29.50;;;;;;5043581;28;20403;-74
2023/10/20 07:10:17;;;;;;;41.17;15.13;;;14.80;29.00;;;;;;5032538;28;20442;-74
2023/10/20 07:12:43;;;;;;;27.97;14.20;;;14.70;28.20;;;;;;5037648;28;20454;-74
2023/10/20 07:15:09;;;;;;;31.47;14.90;;;14.80;28.70;;;;;;5034032;28;20428;-74
2023/10/20 07:17:43;;;;;;;29.20;14.23;;;14.70;27.30;;;;;;5035463;28;20804;-74
2023/10/20 07:20:13;;;;;;;33.20;15.23;;;14.70;27.90;;;;;;5041736;28;22093;-73
2023/10/20 07:22:38;;;;;;;26.20;14.57;;;14.80;23.40;;;;;;5030613;28;20464;-74
2023/10/20 07:25:05;;;;;;;28.20;14.43;;;14.70;23.50;;;;;;5047268;28;20813;-74
2023/10/20 07:27:31;;;;;;;32.33;14.93;;;14.70;20.70;;;;;;5040423;28;20688;-74
2023/10/20 07:29:57;;;;;;;24.87;13.47;;;14.70;20.10;;;;;;5046407;28;20920;-73
2023/10/20 07:32:25;;;;;;;43.33;13.40;;;14.70;14.30;;;;;;5026585;28;20414;-73
2023/10/20 07:34:51;;;;;;;41.20;14.07;;;14.80;16.50;;;;;;5032579;28;20398;-74
2023/10/20 07:37:17;;;;;;;26.20;13.60;;;14.80;16.50;;;;;;5031497;28;20423;-74
2023/10/20 07:39:43;;;;;;;28.40;13.67;;;14.80;17.30;;;;;;5042927;28;20404;-74
2023/10/20 07:42:09;;;;;;;29.87;14.30;;;14.80;17.60;;;;;;5044055;28;20165;-73
2023/10/20 07:44:40;;;;;;;33.47;14.57;;;14.80;17.20;;;;;;5027713;28;20756;-82
2023/10/20 07:47:06;;;;;;;27.10;13.90;;;14.80;12.80;;;;;;5039216;28;20184;-74
2023/10/20 07:49:31;;;;;;;26.50;14.03;;;14.90;13.30;;;;;;5033099;28;20823;-74
2023/10/20 07:51:58;;;;;;;24.37;13.03;;;14.90;13.00;;;;;;5037835;28;20430;-73
2023/10/20 07:54:24;;;;;;;23.47;13.93;;;14.90;12.80;;;;;;5032474;28;20209;-73
2023/10/20 07:56:50;;;;;;;37.23;15.17;;;15.00;11.80;;;;;;5032100;28;20432;-74
2023/10/20 07:59:17;;;;;;;22.07;14.13;;;15.00;11.20;;;;;;5034934;28;20427;-73
2023/10/20 08:01:43;;;;;;;36.47;15.03;;;15.00;9.40;;;;;;5037969;28;20420;-82
2023/10/20 08:04:09;;;;;;;27.67;14.37;;;15.10;12.60;;;;;;5044828;28;20495;-82
2023/10/20 08:06:37;;;;;;;31.57;13.63;;;15.10;11.40;;;;;;5036934;28;20201;-82
2023/10/20 08:09:54;;;;;;;24.67;13.63;;;15.20;10.60;;;;;;5044117;28;20186;-83
2023/10/20 08:12:32;;;;;;;23.00;13.93;;;15.20;11.10;;;;;;5031578;28;20601;-82
2023/10/20 08:15:02;;;;;;;23.47;13.80;;;15.30;9.90;;;;;;5033451;28;20393;-80
2023/10/20 08:17:28;;;;;;;23.70;13.37;;;15.40;9.20;;;;;;5034253;28;20437;-83
2023/10/20 08:20:01;;;;;;;23.00;12.90;;;15.50;12.70;;;;;;5049520;28;20394;-83
2023/10/20 08:22:31;;;;;;;26.67;13.30;;;15.50;10.90;;;;;;5037634;28;20417;-83
2023/10/20 08:25:01;;;;;;;34.50;13.30;;;15.60;8.90;;;;;;5047814;28;20432;-82
2023/10/20 08:27:31;;;;;;;20.90;12.77;;;15.60;4.00;;;;;;5036641;28;20431;-83
2023/10/20 08:30:02;;;;;;;28.87;13.47;;;15.60;2.80;;;;;;5033626;28;20458;-84
2023/10/20 08:32:28;;;;;;;35.13;14.90;;;15.70;2.40;;;;;;5036099;28;20417;-74
2023/10/20 08:34:54;;;;;;;24.73;14.37;;;15.80;2.40;;;;;;5029737;28;20980;-74
2023/10/20 08:37:20;;;;;;;28.23;14.27;;;15.80;1.00;;;;;;5036429;28;20414;-74
2023/10/20 08:39:46;;;;;;;23.60;13.10;;;15.80;1.00;;;;;;5042054;28;20652;-74
2023/10/20 08:42:21;;;;;;;24.33;12.67;;;16.00;1.00;;;;;;5048218;28;20189;-74
2023/10/20 08:44:56;;;;;;;32.13;13.97;;;16.10;1.00;;;;;;5027181;28;20777;-74
2023/10/20 08:47:23;;;;;;;42.27;15.00;;;16.20;1.00;;;;;;5027806;28;20490;-83
2023/10/20 08:49:49;;;;;;;20.40;12.23;;;16.30;1.00;;;;;;5032656;28;20520;-83
2023/10/20 08:52:31;;;;;;;27.17;11.90;;;16.30;1.00;;;;;;5041937;28;20422;-83
2023/10/20 08:55:01;;;;;;;23.70;12.03;;;16.40;1.00;;;;;;5053107;28;20391;-83
2023/10/20 08:57:31;;;;;;;18.40;11.10;;;16.40;1.00;;;;;;5050927;28;20962;-84
2023/10/20 09:00:01;;;;;;;21.40;11.63;;;16.50;1.00;;;;;;5039555;28;20918;-83
2023/10/20 09:02:38;;;;;;;25.57;12.10;;;16.50;1.00;;;;;;5042648;28;20472;-83
2023/10/20 09:05:30;;;;;;;16.20;11.00;;;16.40;1.00;;;;;;5030275;28;20425;-83
2023/10/20 09:08:01;;;;;;;24.37;11.10;;;16.40;1.00;;;;;;5042824;28;20462;-83
2023/10/20 09:10:31;;;;;;;20.23;11.17;;;16.40;1.00;;;;;;5044406;28;20460;-83
2023/10/20 09:13:01;;;;;;;20.27;10.40;;;16.40;1.00;;;;;;5052201;28;20384;-83
2023/10/20 09:15:31;;;;;;;17.57;10.43;;;16.60;1.00;;;;;;5048147;28;20416;-83
2023/10/20 09:18:01;;;;;;;20.80;11.03;;;16.70;1.00;;;;;;5052276;28;20886;-74
2023/10/20 09:20:31;;;;;;;25.73;12.03;;;16.80;1.00;;;;;;5045272;28;20755;-74
2023/10/20 09:23:08;;;;;;;20.07;11.57;;;17.00;1.00;;;;;;5042825;28;20420;-74
2023/10/20 09:25:34;;;;;;;21.57;12.00;;;17.10;1.00;;;;;;5036814;28;20427;-74
2023/10/20 09:28:01;;;;;;;22.77;11.53;;;17.10;1.00;;;;;;5055798;28;20387;-74
2023/10/20 09:30:27;;;;;;;19.60;11.03;;;17.20;1.00;;;;;;5054547;28;20483;-74
2023/10/20 09:32:53;;;;;;;22.30;10.83;;;17.30;1.00;;;;;;5035104;28;20428;-83
2023/10/20 09:35:25;;;;;;;14.60;10.13;;;17.40;1.00;;;;;;5038355;28;20429;-83
2023/10/20 09:38:07;;;;;;;19.30;10.90;;;17.40;1.00;;;;;;5056233;28;20164;-83
2023/10/20 09:40:41;;;;;;;21.20;11.23;;;17.40;1.00;;;;;;5039552;28;20441;-83
2023/10/20 09:43:22;;;;;;;19.27;11.20;;;17.40;1.00;;;;;;5036543;28;20743;-83
2023/10/20 09:46:12;;;;;;;20.07;11.40;;;17.40;1.00;;;;;;5044369;28;20407;-83
2023/10/20 09:48:40;;;;;;;20.63;11.27;;;17.10;1.00;;;;;;5053261;28;20413;-83
2023/10/20 09:51:22;;;;;;;15.50;10.60;;;17.20;1.00;;;;;;5042473;28;20948;-83
2023/10/20 09:53:50;;;;;;;30.97;11.20;;;17.30;1.00;;;;;;5030811;28;20388;-83
2023/10/20 09:56:17;;;;;;;28.10;11.47;;;17.40;1.00;;;;;;5049462;28;20425;-83
2023/10/20 09:58:56;;;;;;;15.97;10.10;;;17.60;1.00;;;;;;5047562;28;20424;-83
2023/10/20 10:01:25;;;;;;;22.77;10.53;;;17.50;1.00;;;;;;5038693;28;20430;-83
2023/10/20 10:04:03;;;;;;;254.47;42.47;;;17.50;1.00;;;;;;5015133;28;20435;-82
2023/10/20 10:06:35;;;;;;;23.70;11.27;;;17.60;1.00;;;;;;5029458;28;20428;-83
2023/10/20 10:09:05;;;;;;;35.23;21.50;;;17.90;1.00;;;;;;5035800;28;20841;-83
2023/10/20 10:11:37;;;;;;;18.37;11.30;;;17.90;1.00;;;;;;5031141;28;20440;-83
2023/10/20 10:14:07;;;;;;;17.40;10.23;;;18.30;1.00;;;;;;5036065;28;20440;-83
2023/10/20 10:16:50;;;;;;;14.80;8.93;;;18.40;1.00;;;;;;5049318;28;20494;-83
2023/10/20 10:19:23;;;;;;;28.73;9.20;;;18.40;1.00;;;;;;5031402;28;20449;-83
2023/10/20 10:21:57;;;;;;;19.10;9.50;;;18.10;1.00;;;;;;5041829;28;20420;-83
2023/10/20 10:24:26;;;;;;;17.07;9.83;;;18.10;1.00;;;;;;5040977;28;20438;-83
2023/10/20 10:27:03;;;;;;;16.93;8.83;;;18.20;1.00;;;;;;5034268;28;20934;-83
2023/10/20 10:30:00;;;;;;;20.03;10.00;;;18.40;1.00;;;;;;5030795;28;20442;-83
2023/10/20 10:32:31;;;;;;;21.50;9.67;;;18.50;1.00;;;;;;5034150;28;20476;-83
2023/10/20 10:34:58;;;;;;;17.80;10.10;;;18.60;1.00;;;;;;5034455;28;20411;-74
2023/10/20 10:37:37;;;;;;;36.50;12.40;;;18.70;1.00;;;;;;5034418;28;20434;-74
2023/10/20 10:40:10;;;;;;;16.00;7.90;;;18.70;1.00;;;;;;5032037;28;20460;-75
2023/10/20 10:42:43;;;;;;;26.83;10.50;;;18.70;1.00;;;;;;5038077;28;20422;-75
2023/10/20 10:45:34;;;;;;;12.67;8.13;;;18.70;1.00;;;;;;5039921;28;20442;-74
2023/10/20 10:48:05;;;;;;;20.43;9.87;;;18.80;1.00;;;;;;5031112;28;20407;-75
2023/10/20 10:50:32;;;;;;;14.83;8.77;;;17.20;1.00;;;;;;5033131;28;20577;-75
2023/10/20 10:52:59;;;;;;;16.57;9.10;;;19.10;1.00;;;;;;5032441;28;20655;-75
2023/10/20 10:55:26;;;;;;;19.10;9.47;;;19.20;1.00;;;;;;5034943;28;20438;-75
2023/10/20 10:57:52;;;;;;;14.17;8.47;;;19.20;1.00;;;;;;5031893;28;20435;-75
2023/10/20 11:00:18;;;;;;;19.63;9.43;;;19.20;1.00;;;;;;5023792;28;20783;-77
2023/10/20 11:02:49;;;;;;;12.23;7.87;;;19.30;1.00;;;;;;5024607;28;20421;-82
2023/10/20 11:05:16;;;;;;;24.10;9.20;;;19.40;1.00;;;;;;5030989;28;20556;-86
2023/10/20 11:08:07;;;;;;;19.90;9.43;;;19.30;1.00;;;;;;5029740;28;20486;-81
2023/10/20 11:10:42;;;;;;;16.20;7.70;;;19.30;1.00;;;;;;5047314;28;20953;-88
2023/10/20 11:13:32;;;;;;;13.50;7.90;;;19.20;1.00;;;;;;5025474;28;20427;-84
2023/10/20 11:16:03;;;;;;;15.90;8.20;;;19.20;1.00;;;;;;5041949;28;20441;-84
2023/10/20 11:18:32;;;;;;;17.50;9.30;;;19.30;1.00;;;;;;5049347;28;20971;-81
2023/10/20 11:21:01;;;;;;;11.87;7.40;;;19.40;1.00;;;;;;5032398;28;20435;-84
2023/10/20 11:23:31;;;;;;;21.37;8.90;;;19.30;1.00;;;;;;5033057;28;20447;-79
2023/10/20 11:25:57;;;;;;;17.80;8.53;;;19.30;1.00;;;;;;5032594;28;20852;-79
2023/10/20 11:28:32;;;;;;;22.00;8.07;;;;;;;;;;5033226;28;20791;-83
2023/10/20 11:31:02;;;;;;;14.73;8.27;;;19.50;1.00;;;;;;5032296;28;20204;-81
2023/10/20 11:33:31;;;;;;;18.37;9.10;;;19.70;1.00;;;;;;5025702;28;20861;-80
2023/10/20 11:36:00;;;;;;;12.53;7.70;;;19.70;1.00;;;;;;5047723;28;20466;-81
2023/10/20 11:38:27;;;;;;;15.30;8.07;;;19.90;1.00;;;;;;5032755;28;20471;-75
2023/10/20 11:40:57;;;;;;;15.13;8.00;;;20.00;1.00;;;;;;5016445;28;20496;-75
2023/10/20 11:43:25;;;;;;;14.13;7.33;;;20.30;1.00;;;;;;5032908;28;20438;-76
2023/10/20 11:45:55;;;;;;;22.53;8.67;;;20.40;1.00;;;;;;5035487;28;20445;-77
2023/10/20 11:48:21;;;;;;;13.93;7.73;;;20.40;1.00;;;;;;5025551;28;20469;-75
2023/10/20 11:50:49;;;;;;;11.47;6.97;;;20.40;1.00;;;;;;5035833;28;20848;-75
2023/10/20 11:53:15;;;;;;;12.67;6.93;;;20.50;1.00;;;;;;5033371;28;20866;-75
2023/10/20 11:55:41;;;;;;;13.93;8.33;;;20.50;1.00;;;;;;5030237;28;20520;-75
2023/10/20 11:58:19;;;;;;;12.67;7.57;;;20.50;1.00;;;;;;5042639;28;20520;-74
2023/10/20 12:00:45;;;;;;;17.60;7.00;;;20.50;1.00;;;;;;5043350;28;20520;-75
2023/10/20 12:03:10;;;;;;;33.80;11.00;;;20.50;1.00;;;;;;5032547;28;20943;-75
2023/10/20 12:05:39;;;;;;;13.70;8.13;;;20.50;1.00;;;;;;5042685;28;20428;-74
2023/10/20 12:08:05;;;;;;;15.63;8.30;;;20.50;1.00;;;;;;5029332;28;20594;-75
2023/10/20 12:10:32;;;;;;;12.50;7.33;;;20.40;1.00;;;;;;5038779;28;20980;-75
2023/10/20 12:13:02;;;;;;;20.10;8.83;;;20.30;1.00;;;;;;5023100;28;20956;-74
2023/10/20 12:15:30;;;;;;;16.23;7.70;;;20.30;1.00;;;;;;5042162;28;20446;-75
2023/10/20 12:17:57;;;;;;;17.50;8.47;;;20.30;1.00;;;;;;5062970;28;20524;-75
2023/10/20 12:20:32;;;;;;;36.43;11.70;;;20.10;1.00;;;;;;5042283;28;20425;-75
2023/10/20 12:23:01;;;;;;;18.73;8.40;;;20.00;1.00;;;;;;5034230;28;20431;-75
2023/10/20 12:25:27;;;;;;;16.00;8.17;;;19.80;1.00;;;;;;5032215;28;20430;-74
2023/10/20 12:27:53;;;;;;;19.30;8.60;;;19.70;1.00;;;;;;5034563;28;20439;-75
2023/10/20 12:30:18;;;;;;;12.67;8.07;;;19.40;1.00;;;;;;5035577;28;20211;-74
2023/10/20 12:32:44;;;;;;;14.60;8.20;;;19.20;1.00;;;;;;5038287;28;21944;-75
2023/10/20 12:35:14;;;;;;;13.63;8.13;;;19.10;1.00;;;;;;5038635;28;20234;-75
2023/10/20 12:37:40;;;;;;;15.20;8.70;;;19.00;1.00;;;;;;5038878;28;20185;-75
2023/10/20 12:40:06;;;;;;;16.30;8.90;;;19.00;1.00;;;;;;5046388;28;20430;-75
2023/10/20 12:42:32;;;;;;;12.03;8.20;;;18.90;1.00;;;;;;5035154;28;20414;-75
2023/10/20 12:45:00;;;;;;;19.90;9.50;;;18.80;1.00;;;;;;5040718;28;20419;-75
2023/10/20 12:47:37;;;;;;;15.57;8.43;;;18.80;1.00;;;;;;5038405;28;20433;-75
2023/10/20 12:50:03;;;;;;;12.00;8.43;;;18.70;1.00;;;;;;5032164;28;20466;-75
2023/10/20 12:52:55;;;;;;;18.10;8.73;;;18.60;1.00;;;;;;5027967;28;20952;-83
2023/10/20 12:55:43;;;;;;;14.40;9.93;;;18.60;1.00;;;;;;5047333;28;20465;-83
2023/10/20 12:58:13;;;;;;;12.40;8.30;;;18.50;1.00;;;;;;5045268;28;20502;-83
2023/10/20 13:00:55;;;;;;;21.67;8.00;;;18.40;1.00;;;;;;5043278;28;20429;-83
2023/10/20 13:03:37;;;;;;;16.67;8.97;;;18.30;1.00;;;;;;5029329;28;20914;-83
2023/10/20 13:06:03;;;;;;;21.63;8.70;;;18.20;1.00;;;;;;5045081;28;20411;-83
2023/10/20 13:08:31;;;;;;;12.20;7.50;;;18.20;1.00;;;;;;5035781;28;20459;-83
2023/10/20 13:11:01;;;;;;;9.73;7.03;;;18.30;1.00;;;;;;5033928;28;20767;-82
2023/10/20 13:13:50;;;;;;;10.80;7.27;;;18.50;1.00;;;;;;5045495;28;20433;-78
2023/10/20 13:16:37;;;;;;;13.50;7.00;;;18.70;1.00;;;;;;5042244;28;20457;-79
2023/10/20 13:19:07;;;;;;;7.03;5.73;;;18.80;1.00;;;;;;5038701;28;20492;-79
2023/10/20 13:21:37;;;;;;;16.33;5.70;;;18.80;1.00;;;;;;5043633;28;20501;-79
2023/10/20 13:24:32;;;;;;;11.97;5.80;;;18.90;1.00;;;;;;5033271;28;20381;-79
2023/10/20 13:27:07;;;;;;;9.33;4.97;;;19.00;1.00;;;;;;5035851;28;20411;-79
2023/10/20 13:29:33;;;;;;;7.00;4.40;;;19.10;1.00;;;;;;5037266;28;20401;-80
2023/10/20 13:32:01;;;;;;;4.10;3.60;;;19.00;1.00;;;;;;5033633;28;20462;-82
2023/10/20 13:34:33;;;;;;;5.10;3.43;;;19.00;1.00;;;;;;5044953;28;20211;-82
2023/10/20 13:37:43;;;;;;;5.50;3.50;;;18.90;1.00;;;;;;5048794;28;20669;-81
2023/10/20 13:40:13;;;;;;;4.97;3.33;;;18.80;1.00;;;;;;5030333;28;20612;-82
2023/10/20 13:42:43;;;;;;;4.10;3.20;;;19.00;1.00;;;;;;5059161;28;20439;-81
2023/10/20 13:45:13;;;;;;;4.50;2.77;;;19.10;1.00;;;;;;5041336;28;20423;-81
2023/10/20 13:47:39;;;;;;;2.73;2.53;;;19.00;1.00;;;;;;5041968;28;20394;-81
2023/10/20 13:50:13;;;;;;;3.03;2.60;;;19.00;1.00;;;;;;5042415;28;20537;-82
2023/10/20 13:52:44;;;;;;;5.43;2.57;;;19.10;1.00;;;;;;5031149;28;20188;-79
2023/10/20 13:55:19;;;;;;;10.50;3.40;;;19.10;1.00;;;;;;5035529;28;20514;-79
2023/10/20 13:57:45;;;;;;;1.73;1.63;;;19.10;1.00;;;;;;5045248;28;20924;-79
2023/10/20 14:00:12;;;;;;;3.00;2.17;;;19.00;1.00;;;;;;5040733;28;20392;-79
2023/10/20 14:02:43;;;;;;;2.27;1.97;;;19.10;1.00;;;;;;5035226;28;20406;-80
2023/10/20 14:05:27;;;;;;;4.50;1.93;;;19.30;1.00;;;;;;5040609;28;20397;-79
2023/10/20 14:08:02;;;;;;;12.80;3.90;;;19.50;1.00;;;;;;5034136;28;20899;-75
2023/10/20 14:10:28;;;;;;;11.33;3.20;;;19.50;1.00;;;;;;5033836;28;20436;-75
2023/10/20 14:12:55;;;;;;;2.60;1.83;;;19.30;1.00;;;;;;5029840;28;20424;-75
2023/10/20 14:15:25;;;;;;;2.90;1.40;;;19.00;1.00;;;;;;5047251;28;20522;-76